createdAt,value
2022-11-29T00:03:58.508Z,7.80
2022-11-29T00:12:16.189Z,7.20
2022-11-29T00:20:24.168Z,6.60
2022-11-29T00:28:29.546Z,6.70
2022-11-29T00:36:38.356Z,7.20
2022-11-29T00:44:43.840Z,7.30
2022-11-29T00:52:51.958Z,6.70
2022-11-29T01:00:57.844Z,6.80
2022-11-29T01:09:06.030Z,7.20
2022-11-29T01:17:11.573Z,6.70
2022-11-29T01:25:19.803Z,7.10
2022-11-29T01:33:25.705Z,7.10
2022-11-29T01:41:35.084Z,6.80
2022-11-29T01:49:43.118Z,6.90
2022-11-29T01:57:51.152Z,6.50
2022-11-29T02:05:57.906Z,6.60
2022-11-29T02:14:21.098Z,6.20
2022-11-29T02:22:32.663Z,6.50
2022-11-29T02:31:06.717Z,6.80
2022-11-29T02:39:55.051Z,6.70
2022-11-29T02:48:21.235Z,6.80
2022-11-29T02:56:37.710Z,6.60
2022-11-29T03:04:51.698Z,6.50
2022-11-29T03:13:01.547Z,7.10
2022-11-29T03:21:21.559Z,7.30
2022-11-29T03:29:35.686Z,7.70
2022-11-29T03:37:48.546Z,7.70
2022-11-29T03:46:01.974Z,7.10
2022-11-29T03:54:10.888Z,7.30
2022-11-29T04:02:50.007Z,7.30
2022-11-29T04:11:25.988Z,6.30
2022-11-29T04:20:00.548Z,6.30
2022-11-29T04:28:33.551Z,5.90
2022-11-29T04:37:12.511Z,6.50
2022-11-29T04:46:05.552Z,6.80
2022-11-29T04:54:20.311Z,6.70
2022-11-29T05:02:36.351Z,7.00
2022-11-29T05:10:48.781Z,6.70
2022-11-29T05:19:21.140Z,6.70
2022-11-29T05:27:39.069Z,7.00
2022-11-29T05:35:54.944Z,6.80
2022-11-29T05:44:10.507Z,6.50
2022-11-29T05:52:28.352Z,6.80
2022-11-29T06:00:43.947Z,7.20
2022-11-29T06:09:09.263Z,7.40
2022-11-29T06:17:52.617Z,7.30
2022-11-29T06:26:13.940Z,7.50
2022-11-29T06:34:30.658Z,7.00
2022-11-29T06:42:39.637Z,6.60
2022-11-29T06:50:56.433Z,6.90
2022-11-29T06:59:10.415Z,7.60
2022-11-29T07:07:21.053Z,8.20
2022-11-29T07:15:30.479Z,8.60
2022-11-29T07:23:39.405Z,9.40
2022-11-29T07:31:57.014Z,9.40
2022-11-29T07:40:08.808Z,9.30
2022-11-29T07:48:19.290Z,9.60
2022-11-29T07:56:24.556Z,9.80
2022-11-29T08:04:32.838Z,10.00
2022-11-29T08:12:38.276Z,10.70
2022-11-29T08:20:46.732Z,13.10
2022-11-29T08:28:55.120Z,14.20
2022-11-29T08:37:05.140Z,14.20
2022-11-29T08:45:17.601Z,13.20
2022-11-29T08:53:40.329Z,12.80
2022-11-29T09:01:45.788Z,12.30
2022-11-29T09:09:53.795Z,12.10
2022-11-29T09:17:59.195Z,12.10
2022-11-29T09:26:08.697Z,12.70
2022-11-29T09:34:16.007Z,13.10
2022-11-29T09:42:43.468Z,14.40
2022-11-29T09:50:51.579Z,15.10
2022-11-29T09:59:02.679Z,15.40
2022-11-29T10:07:14.137Z,14.90
2022-11-29T10:15:25.113Z,14.30
2022-11-29T10:23:36.109Z,14.00
2022-11-29T10:31:49.568Z,14.20
2022-11-29T10:40:00.160Z,14.30
2022-11-29T10:48:12.906Z,13.30
2022-11-29T10:56:27.663Z,13.80
2022-11-29T11:04:39.953Z,14.50
2022-11-29T11:13:05.721Z,13.40
2022-11-29T11:21:17.518Z,11.60
2022-11-29T11:29:25.805Z,10.80
2022-11-29T11:37:35.879Z,11.10
2022-11-29T11:45:41.312Z,11.00
2022-11-29T11:53:55.499Z,11.10
2022-11-29T12:02:01.230Z,11.10
2022-11-29T12:10:20.267Z,10.90
2022-11-29T12:18:33.679Z,10.80
2022-11-29T12:27:01.062Z,11.50
2022-11-29T12:35:35.272Z,11.60
2022-11-29T12:43:56.721Z,11.50
2022-11-29T12:52:12.329Z,11.70
2022-11-29T13:00:22.772Z,11.40
2022-11-29T13:08:55.986Z,11.50
2022-11-29T13:17:06.771Z,11.80
2022-11-29T13:25:19.537Z,11.80
2022-11-29T13:33:34.195Z,12.10
2022-11-29T13:41:49.399Z,11.40
2022-11-29T13:50:04.563Z,11.40
2022-11-29T13:58:36.438Z,11.70
2022-11-29T14:06:48.121Z,11.80
2022-11-29T14:14:57.239Z,11.70
2022-11-29T14:23:21.357Z,11.60
2022-11-29T14:31:52.498Z,11.90
2022-11-29T14:40:03.775Z,12.10
2022-11-29T14:48:26.955Z,12.10
2022-11-29T14:56:42.946Z,12.00
2022-11-29T15:04:49.072Z,11.50
2022-11-29T15:12:58.262Z,11.50
2022-11-29T15:21:18.006Z,10.70
2022-11-29T15:29:33.706Z,10.50
2022-11-29T15:37:46.869Z,10.80
2022-11-29T15:45:55.847Z,11.00
2022-11-29T15:54:13.444Z,11.10
2022-11-29T16:02:26.044Z,11.30
2022-11-29T16:10:37.446Z,11.30
2022-11-29T16:18:47.714Z,11.30
2022-11-29T16:26:53.982Z,11.30
2022-11-29T16:35:10.112Z,11.30
2022-11-29T16:43:57.247Z,11.20
2022-11-29T16:52:26.851Z,11.30
2022-11-29T17:00:35.291Z,11.40
2022-11-29T17:08:44.627Z,11.40
2022-11-29T17:16:52.187Z,11.20
2022-11-29T17:25:01.163Z,11.30
2022-11-29T17:33:07.104Z,11.10
2022-11-29T17:41:18.284Z,10.90
2022-11-29T17:49:24.281Z,10.80
2022-11-29T17:57:32.225Z,10.80
2022-11-29T18:05:39.316Z,11.00
2022-11-29T18:13:47.471Z,11.00
2022-11-29T18:21:54.375Z,10.80
2022-11-29T18:30:03.146Z,10.70
2022-11-29T18:38:16.894Z,10.60
2022-11-29T18:46:25.654Z,10.60
2022-11-29T18:54:32.008Z,10.60
2022-11-29T19:02:40.104Z,10.30
2022-11-29T19:10:45.582Z,10.40
2022-11-29T19:18:55.469Z,10.40
2022-11-29T19:27:01.536Z,10.10
2022-11-29T19:35:10.545Z,9.40
2022-11-29T19:43:18.544Z,9.40
2022-11-29T19:51:28.769Z,9.50
2022-11-29T19:59:34.146Z,9.50
2022-11-29T20:07:43.632Z,9.50
2022-11-29T20:15:50.005Z,9.30
2022-11-29T20:24:02.830Z,9.50
2022-11-29T20:32:08.863Z,9.50
2022-11-29T20:40:22.343Z,9.50
2022-11-29T20:48:28.974Z,9.50
2022-11-29T20:56:37.065Z,9.50
2022-11-29T21:04:42.354Z,9.10
2022-11-29T21:12:51.258Z,9.10
2022-11-29T21:21:11.500Z,9.00
2022-11-29T21:29:23.854Z,9.10
2022-11-29T21:37:35.769Z,9.00
2022-11-29T21:45:43.818Z,9.10
2022-11-29T21:53:49.151Z,8.90
2022-11-29T22:01:57.463Z,8.70
2022-11-29T22:10:11.589Z,8.50
2022-11-29T22:18:21.298Z,8.40
2022-11-29T22:26:26.672Z,8.50
2022-11-29T22:34:37.832Z,7.90
2022-11-29T22:42:52.205Z,8.20
2022-11-29T22:51:09.968Z,8.30
2022-11-29T22:59:15.568Z,8.30
2022-11-29T23:07:28.490Z,8.20
2022-11-29T23:15:36.241Z,8.00
2022-11-29T23:23:45.189Z,8.30
2022-11-29T23:31:51.150Z,8.20
2022-11-29T23:39:59.061Z,7.90
2022-11-29T23:48:04.402Z,7.90
2022-11-29T23:56:15.897Z,8.10
